sensor_id;sensor_type;location;lat;lon;timestamp;pressure;altitude;pressure_sealevel;temperature;humidity
72558;BME280;60583;50.094;8.748;2023-05-27T00:01:32;101441.81;;;13.98;56.72
72558;BME280;60583;50.094;8.748;2023-05-27T00:03:57;101445.34;;;14.05;57.17
72558;BME280;60583;50.094;8.748;2023-05-27T00:06:23;101443.91;;;14.03;57.00
72558;BME280;60583;50.094;8.748;2023-05-27T00:08:48;101422.44;;;13.75;58.14
72558;BME280;60583;50.094;8.748;2023-05-27T00:11:13;101435.81;;;13.96;57.39
72558;BME280;60583;50.094;8.748;2023-05-27T00:13:39;101432.84;;;13.64;58.00
72558;BME280;60583;50.094;8.748;2023-05-27T00:16:05;101437.38;;;13.63;58.07
72558;BME280;60583;50.094;8.748;2023-05-27T00:18:30;101438.00;;;13.65;58.14
72558;BME280;60583;50.094;8.748;2023-05-27T00:20:58;101442.88;;;13.76;57.69
72558;BME280;60583;50.094;8.748;2023-05-27T00:23:24;101431.09;;;13.77;57.95
72558;BME280;60583;50.094;8.748;2023-05-27T00:25:49;101439.41;;;13.82;57.51
72558;BME280;60583;50.094;8.748;2023-05-27T00:28:15;101438.84;;;13.87;57.46
72558;BME280;60583;50.094;8.748;2023-05-27T00:30:40;101438.00;;;13.86;57.47
72558;BME280;60583;50.094;8.748;2023-05-27T00:33:06;101424.47;;;13.73;57.72
72558;BME280;60583;50.094;8.748;2023-05-27T00:35:31;101436.72;;;13.82;57.84
72558;BME280;60583;50.094;8.748;2023-05-27T00:37:57;101425.09;;;13.75;57.80
72558;BME280;60583;50.094;8.748;2023-05-27T00:40:24;101441.19;;;13.75;57.68
72558;BME280;60583;50.094;8.748;2023-05-27T00:42:51;101420.72;;;13.68;57.74
72558;BME280;60583;50.094;8.748;2023-05-27T00:45:16;101434.44;;;13.79;57.71
72558;BME280;60583;50.094;8.748;2023-05-27T00:47:43;101424.63;;;13.65;57.42
72558;BME280;60583;50.094;8.748;2023-05-27T00:50:09;101409.25;;;13.53;57.23
72558;BME280;60583;50.094;8.748;2023-05-27T00:52:35;101444.00;;;13.67;57.93
72558;BME280;60583;50.094;8.748;2023-05-27T00:55:00;101432.53;;;13.52;57.81
72558;BME280;60583;50.094;8.748;2023-05-27T00:57:27;101423.69;;;13.52;57.99
72558;BME280;60583;50.094;8.748;2023-05-27T00:59:53;101428.63;;;13.55;58.04
72558;BME280;60583;50.094;8.748;2023-05-27T01:02:18;101425.78;;;13.56;58.08
72558;BME280;60583;50.094;8.748;2023-05-27T01:04:45;101443.56;;;13.64;57.80
72558;BME280;60583;50.094;8.748;2023-05-27T01:07:19;101433.44;;;13.59;57.95
72558;BME280;60583;50.094;8.748;2023-05-27T01:12:55;101451.03;;;13.47;59.19
72558;BME280;60583;50.094;8.748;2023-05-27T01:15:24;101453.28;;;13.43;58.87
72558;BME280;60583;50.094;8.748;2023-05-27T01:17:53;101428.13;;;13.23;59.36
72558;BME280;60583;50.094;8.748;2023-05-27T01:20:20;101457.28;;;13.33;59.05
72558;BME280;60583;50.094;8.748;2023-05-27T01:22:46;101435.56;;;13.07;59.58
72558;BME280;60583;50.094;8.748;2023-05-27T01:25:12;101441.91;;;13.06;60.10
72558;BME280;60583;50.094;8.748;2023-05-27T01:27:38;101433.25;;;13.04;60.61
72558;BME280;60583;50.094;8.748;2023-05-27T01:30:07;101447.56;;;13.11;60.79
72558;BME280;60583;50.094;8.748;2023-05-27T01:32:56;101428.97;;;12.59;61.15
72558;BME280;60583;50.094;8.748;2023-05-27T01:35:42;101443.91;;;12.68;61.36
72558;BME280;60583;50.094;8.748;2023-05-27T01:38:13;101439.00;;;12.86;60.88
72558;BME280;60583;50.094;8.748;2023-05-27T01:40:40;101441.84;;;12.85;60.78
72558;BME280;60583;50.094;8.748;2023-05-27T01:43:06;101430.69;;;12.96;61.22
72558;BME280;60583;50.094;8.748;2023-05-27T01:45:33;101433.63;;;13.01;60.50
72558;BME280;60583;50.094;8.748;2023-05-27T01:47:59;101437.28;;;12.78;61.13
72558;BME280;60583;50.094;8.748;2023-05-27T01:50:25;101431.97;;;12.85;61.15
72558;BME280;60583;50.094;8.748;2023-05-27T01:52:50;101428.03;;;12.66;61.55
72558;BME280;60583;50.094;8.748;2023-05-27T01:55:16;101436.31;;;12.71;62.25
72558;BME280;60583;50.094;8.748;2023-05-27T01:57:42;101425.09;;;12.61;62.53
72558;BME280;60583;50.094;8.748;2023-05-27T02:00:09;101403.69;;;12.61;62.26
72558;BME280;60583;50.094;8.748;2023-05-27T02:02:34;101417.53;;;12.50;62.02
72558;BME280;60583;50.094;8.748;2023-05-27T02:04:59;101424.28;;;12.61;61.80
72558;BME280;60583;50.094;8.748;2023-05-27T02:07:25;101427.59;;;12.63;61.85
72558;BME280;60583;50.094;8.748;2023-05-27T02:09:52;101426.94;;;12.46;62.44
72558;BME280;60583;50.094;8.748;2023-05-27T02:12:17;101440.50;;;12.30;63.95
72558;BME280;60583;50.094;8.748;2023-05-27T02:14:43;101415.59;;;12.30;63.68
72558;BME280;60583;50.094;8.748;2023-05-27T02:17:10;101435.09;;;12.38;63.80
72558;BME280;60583;50.094;8.748;2023-05-27T02:19:36;101370.03;;;12.08;63.62
72558;BME280;60583;50.094;8.748;2023-05-27T02:22:02;101393.66;;;12.20;63.19
72558;BME280;60583;50.094;8.748;2023-05-27T02:24:27;101418.28;;;12.44;63.22
72558;BME280;60583;50.094;8.748;2023-05-27T02:26:53;101407.59;;;12.30;63.45
72558;BME280;60583;50.094;8.748;2023-05-27T02:29:18;101400.47;;;12.22;63.59
72558;BME280;60583;50.094;8.748;2023-05-27T02:31:44;101410.34;;;12.36;63.99
72558;BME280;60583;50.094;8.748;2023-05-27T02:34:09;101410.25;;;12.30;63.70
72558;BME280;60583;50.094;8.748;2023-05-27T02:36:35;101407.31;;;12.10;64.13
72558;BME280;60583;50.094;8.748;2023-05-27T02:39:03;101394.78;;;12.10;64.09
72558;BME280;60583;50.094;8.748;2023-05-27T02:41:29;101406.94;;;12.13;64.24
72558;BME280;60583;50.094;8.748;2023-05-27T02:43:54;101412.00;;;12.08;64.26
72558;BME280;60583;50.094;8.748;2023-05-27T02:46:19;101410.25;;;12.15;64.54
72558;BME280;60583;50.094;8.748;2023-05-27T02:48:46;101417.38;;;12.23;64.59
72558;BME280;60583;50.094;8.748;2023-05-27T02:51:12;101418.28;;;12.15;64.17
72558;BME280;60583;50.094;8.748;2023-05-27T02:53:37;101419.69;;;12.26;64.64
72558;BME280;60583;50.094;8.748;2023-05-27T02:56:02;101388.88;;;12.00;64.18
72558;BME280;60583;50.094;8.748;2023-05-27T02:58:28;101408.88;;;12.19;65.68
72558;BME280;60583;50.094;8.748;2023-05-27T03:00:53;101412.66;;;12.10;65.19
72558;BME280;60583;50.094;8.748;2023-05-27T03:03:19;101400.28;;;11.94;65.37
72558;BME280;60583;50.094;8.748;2023-05-27T03:05:44;101396.84;;;11.86;65.36
72558;BME280;60583;50.094;8.748;2023-05-27T03:08:09;101416.25;;;12.02;65.50
72558;BME280;60583;50.094;8.748;2023-05-27T03:10:35;101408.94;;;11.96;66.51
72558;BME280;60583;50.094;8.748;2023-05-27T03:13:00;101405.72;;;12.01;65.96
72558;BME280;60583;50.094;8.748;2023-05-27T03:15:26;101402.59;;;11.97;66.35
72558;BME280;60583;50.094;8.748;2023-05-27T03:17:55;101385.06;;;11.95;66.03
72558;BME280;60583;50.094;8.748;2023-05-27T03:20:20;101388.75;;;11.94;66.01
72558;BME280;60583;50.094;8.748;2023-05-27T03:22:46;101374.94;;;11.90;66.61
72558;BME280;60583;50.094;8.748;2023-05-27T03:25:12;101405.91;;;11.99;66.21
72558;BME280;60583;50.094;8.748;2023-05-27T03:27:38;101387.09;;;11.93;66.90
72558;BME280;60583;50.094;8.748;2023-05-27T03:30:06;101403.94;;;11.93;66.61
72558;BME280;60583;50.094;8.748;2023-05-27T03:32:33;101395.22;;;11.99;66.06
72558;BME280;60583;50.094;8.748;2023-05-27T03:34:58;101396.69;;;12.02;65.69
72558;BME280;60583;50.094;8.748;2023-05-27T03:37:24;101396.59;;;11.95;66.06
72558;BME280;60583;50.094;8.748;2023-05-27T03:39:49;101388.75;;;11.94;65.54
72558;BME280;60583;50.094;8.748;2023-05-27T03:42:15;101407.28;;;11.95;66.33
72558;BME280;60583;50.094;8.748;2023-05-27T03:44:40;101406.09;;;11.98;66.17
72558;BME280;60583;50.094;8.748;2023-05-27T03:47:05;101406.09;;;11.98;66.41
72558;BME280;60583;50.094;8.748;2023-05-27T03:49:31;101406.63;;;11.93;66.38
72558;BME280;60583;50.094;8.748;2023-05-27T03:51:56;101407.47;;;11.94;66.88
72558;BME280;60583;50.094;8.748;2023-05-27T03:54:22;101392.91;;;11.96;66.55
72558;BME280;60583;50.094;8.748;2023-05-27T03:56:47;101393.16;;;11.87;66.89
72558;BME280;60583;50.094;8.748;2023-05-27T03:59:13;101393.44;;;11.92;66.72
72558;BME280;60583;50.094;8.748;2023-05-27T04:01:38;101399.78;;;11.91;66.80
72558;BME280;60583;50.094;8.748;2023-05-27T04:04:04;101381.91;;;11.77;67.33
72558;BME280;60583;50.094;8.748;2023-05-27T04:06:30;101394.94;;;11.94;66.43
72558;BME280;60583;50.094;8.748;2023-05-27T04:08:57;101400.84;;;12.04;66.50
72558;BME280;60583;50.094;8.748;2023-05-27T04:11:23;101402.50;;;12.05;67.35
72558;BME280;60583;50.094;8.748;2023-05-27T04:13:48;101408.66;;;11.91;67.30
72558;BME280;60583;50.094;8.748;2023-05-27T04:16:14;101395.94;;;11.93;67.94
72558;BME280;60583;50.094;8.748;2023-05-27T04:18:40;101399.00;;;12.05;67.00
72558;BME280;60583;50.094;8.748;2023-05-27T04:21:06;101383.59;;;11.78;67.92
72558;BME280;60583;50.094;8.748;2023-05-27T04:23:33;101387.19;;;11.85;67.79
72558;BME280;60583;50.094;8.748;2023-05-27T04:25:59;101396.84;;;11.86;67.64
72558;BME280;60583;50.094;8.748;2023-05-27T04:28:24;101393.81;;;11.89;67.63
72558;BME280;60583;50.094;8.748;2023-05-27T04:30:49;101376.75;;;11.75;67.56
72558;BME280;60583;50.094;8.748;2023-05-27T04:33:15;101409.19;;;11.87;68.38
72558;BME280;60583;50.094;8.748;2023-05-27T04:35:42;101417.34;;;12.08;67.95
72558;BME280;60583;50.094;8.748;2023-05-27T04:38:12;101390.41;;;11.95;67.11
72558;BME280;60583;50.094;8.748;2023-05-27T04:40:44;101401.59;;;12.13;66.90
72558;BME280;60583;50.094;8.748;2023-05-27T04:43:18;101390.44;;;12.09;67.75
72558;BME280;60583;50.094;8.748;2023-05-27T04:45:44;101401.31;;;12.08;66.40
72558;BME280;60583;50.094;8.748;2023-05-27T04:48:10;101411.47;;;12.27;67.07
72558;BME280;60583;50.094;8.748;2023-05-27T04:50:36;101391.34;;;12.31;66.94
72558;BME280;60583;50.094;8.748;2023-05-27T04:53:01;101410.44;;;12.28;66.17
72558;BME280;60583;50.094;8.748;2023-05-27T04:55:27;101409.78;;;12.26;67.31
72558;BME280;60583;50.094;8.748;2023-05-27T04:57:53;101409.25;;;12.31;66.82
72558;BME280;60583;50.094;8.748;2023-05-27T05:00:19;101414.03;;;12.35;66.29
72558;BME280;60583;50.094;8.748;2023-05-27T05:02:49;101408.78;;;12.42;66.18
72558;BME280;60583;50.094;8.748;2023-05-27T05:05:14;101401.03;;;12.47;66.12
72558;BME280;60583;50.094;8.748;2023-05-27T05:07:40;101401.22;;;12.45;66.05
72558;BME280;60583;50.094;8.748;2023-05-27T05:10:07;101411.66;;;12.40;66.58
72558;BME280;60583;50.094;8.748;2023-05-27T05:12:33;101410.78;;;12.54;65.90
72558;BME280;60583;50.094;8.748;2023-05-27T05:14:58;101403.69;;;12.61;65.88
72558;BME280;60583;50.094;8.748;2023-05-27T05:17:24;101417.78;;;12.70;65.53
72558;BME280;60583;50.094;8.748;2023-05-27T05:19:51;101409.41;;;12.73;66.20
72558;BME280;60583;50.094;8.748;2023-05-27T05:22:17;101393.00;;;12.32;66.01
72558;BME280;60583;50.094;8.748;2023-05-27T05:24:50;101417.63;;;12.42;66.56
72558;BME280;60583;50.094;8.748;2023-05-27T05:27:16;101409.03;;;12.61;66.06
72558;BME280;60583;50.094;8.748;2023-05-27T05:29:41;101391.03;;;12.70;65.46
72558;BME280;60583;50.094;8.748;2023-05-27T05:32:10;101392.47;;;12.87;65.41
72558;BME280;60583;50.094;8.748;2023-05-27T05:34:39;101394.31;;;12.87;64.85
72558;BME280;60583;50.094;8.748;2023-05-27T05:37:05;101417.81;;;13.06;64.19
72558;BME280;60583;50.094;8.748;2023-05-27T05:39:31;101424.47;;;13.10;64.01
72558;BME280;60583;50.094;8.748;2023-05-27T05:41:57;101409.63;;;13.07;65.03
72558;BME280;60583;50.094;8.748;2023-05-27T05:44:23;101404.72;;;13.11;64.75
72558;BME280;60583;50.094;8.748;2023-05-27T05:46:48;101403.56;;;13.20;63.70
72558;BME280;60583;50.094;8.748;2023-05-27T05:49:14;101417.41;;;13.23;63.94
72558;BME280;60583;50.094;8.748;2023-05-27T05:51:40;101419.41;;;13.36;63.16
72558;BME280;60583;50.094;8.748;2023-05-27T05:54:05;101409.81;;;13.48;63.75
72558;BME280;60583;50.094;8.748;2023-05-27T05:56:31;101418.03;;;13.68;63.22
72558;BME280;60583;50.094;8.748;2023-05-27T05:58:57;101424.56;;;13.59;63.40
72558;BME280;60583;50.094;8.748;2023-05-27T06:01:22;101386.97;;;13.52;62.18
72558;BME280;60583;50.094;8.748;2023-05-27T06:03:48;101406.47;;;13.67;62.52
72558;BME280;60583;50.094;8.748;2023-05-27T06:06:13;101415.72;;;13.86;62.90
72558;BME280;60583;50.094;8.748;2023-05-27T06:08:40;101424.03;;;13.97;62.08
72558;BME280;60583;50.094;8.748;2023-05-27T06:11:06;101422.41;;;13.96;62.05
72558;BME280;60583;50.094;8.748;2023-05-27T06:13:31;101409.03;;;14.03;61.30
72558;BME280;60583;50.094;8.748;2023-05-27T06:15:57;101426.44;;;14.14;60.96
72558;BME280;60583;50.094;8.748;2023-05-27T06:18:22;101397.31;;;14.11;60.40
72558;BME280;60583;50.094;8.748;2023-05-27T06:20:47;101414.25;;;14.39;60.81
72558;BME280;60583;50.094;8.748;2023-05-27T06:23:13;101415.91;;;14.40;60.51
72558;BME280;60583;50.094;8.748;2023-05-27T06:25:38;101401.75;;;14.59;59.99
72558;BME280;60583;50.094;8.748;2023-05-27T06:28:04;101400.44;;;14.42;60.21
72558;BME280;60583;50.094;8.748;2023-05-27T06:30:31;101410.81;;;14.58;60.53
72558;BME280;60583;50.094;8.748;2023-05-27T06:32:57;101402.06;;;14.43;60.14
72558;BME280;60583;50.094;8.748;2023-05-27T06:35:22;101405.06;;;14.61;59.74
72558;BME280;60583;50.094;8.748;2023-05-27T06:37:47;101394.63;;;14.38;60.30
72558;BME280;60583;50.094;8.748;2023-05-27T06:40:13;101390.88;;;14.33;60.51
72558;BME280;60583;50.094;8.748;2023-05-27T06:42:38;101395.63;;;14.72;60.27
72558;BME280;60583;50.094;8.748;2023-05-27T06:45:04;101400.59;;;14.81;60.30
72558;BME280;60583;50.094;8.748;2023-05-27T06:47:30;101391.13;;;14.92;59.66
72558;BME280;60583;50.094;8.748;2023-05-27T06:49:55;101389.13;;;15.00;58.84
72558;BME280;60583;50.094;8.748;2023-05-27T06:52:21;101384.09;;;14.91;58.97
72558;BME280;60583;50.094;8.748;2023-05-27T06:54:47;101397.38;;;15.05;59.09
72558;BME280;60583;50.094;8.748;2023-05-27T06:57:14;101388.31;;;15.19;59.17
72558;BME280;60583;50.094;8.748;2023-05-27T06:59:40;101400.31;;;15.17;59.41
72558;BME280;60583;50.094;8.748;2023-05-27T07:02:06;101384.59;;;15.33;58.75
72558;BME280;60583;50.094;8.748;2023-05-27T07:04:31;101386.53;;;15.53;57.99
72558;BME280;60583;50.094;8.748;2023-05-27T07:06:57;101371.44;;;15.65;57.23
72558;BME280;60583;50.094;8.748;2023-05-27T07:09:22;101387.13;;;15.87;57.24
72558;BME280;60583;50.094;8.748;2023-05-27T07:11:48;101381.94;;;15.86;56.53
72558;BME280;60583;50.094;8.748;2023-05-27T07:14:13;101385.03;;;15.96;57.98
72558;BME280;60583;50.094;8.748;2023-05-27T07:16:38;101390.19;;;16.17;56.74
72558;BME280;60583;50.094;8.748;2023-05-27T07:19:04;101377.53;;;16.24;56.92
72558;BME280;60583;50.094;8.748;2023-05-27T07:21:30;101379.63;;;16.22;56.88
72558;BME280;60583;50.094;8.748;2023-05-27T07:23:55;101365.50;;;16.40;55.62
72558;BME280;60583;50.094;8.748;2023-05-27T07:26:24;101352.47;;;16.30;55.05
72558;BME280;60583;50.094;8.748;2023-05-27T07:28:51;101375.00;;;16.42;56.11
72558;BME280;60583;50.094;8.748;2023-05-27T07:31:17;101362.13;;;16.57;56.26
72558;BME280;60583;50.094;8.748;2023-05-27T07:33:42;101360.97;;;16.85;56.51
72558;BME280;60583;50.094;8.748;2023-05-27T07:36:08;101358.84;;;16.93;55.53
72558;BME280;60583;50.094;8.748;2023-05-27T07:38:33;101361.84;;;17.10;53.14
72558;BME280;60583;50.094;8.748;2023-05-27T07:40:58;101351.41;;;17.20;54.60
72558;BME280;60583;50.094;8.748;2023-05-27T07:43:24;101345.25;;;17.44;54.38
72558;BME280;60583;50.094;8.748;2023-05-27T07:45:49;101329.66;;;17.46;53.15
72558;BME280;60583;50.094;8.748;2023-05-27T07:48:15;101342.97;;;17.41;52.62
72558;BME280;60583;50.094;8.748;2023-05-27T07:50:40;101356.31;;;17.61;51.81
72558;BME280;60583;50.094;8.748;2023-05-27T07:53:06;101349.06;;;17.61;53.52
72558;BME280;60583;50.094;8.748;2023-05-27T07:55:31;101330.56;;;17.09;53.39
72558;BME280;60583;50.094;8.748;2023-05-27T07:57:56;101335.63;;;17.23;54.14
72558;BME280;60583;50.094;8.748;2023-05-27T08:00:22;101342.06;;;17.54;52.99
72558;BME280;60583;50.094;8.748;2023-05-27T08:02:47;101331.84;;;17.80;52.43
72558;BME280;60583;50.094;8.748;2023-05-27T08:05:13;101323.88;;;17.67;53.28
72558;BME280;60583;50.094;8.748;2023-05-27T08:07:38;101335.00;;;17.96;53.35
72558;BME280;60583;50.094;8.748;2023-05-27T08:10:05;101326.34;;;18.30;53.95
72558;BME280;60583;50.094;8.748;2023-05-27T08:12:31;101334.75;;;18.22;52.59
72558;BME280;60583;50.094;8.748;2023-05-27T08:14:57;101316.94;;;18.51;51.95
72558;BME280;60583;50.094;8.748;2023-05-27T08:17:23;101324.75;;;18.40;51.86
72558;BME280;60583;50.094;8.748;2023-05-27T08:19:48;101310.28;;;18.53;51.84
72558;BME280;60583;50.094;8.748;2023-05-27T08:22:13;101317.19;;;18.79;52.61
72558;BME280;60583;50.094;8.748;2023-05-27T08:24:39;101293.13;;;18.77;50.79
72558;BME280;60583;50.094;8.748;2023-05-27T08:27:04;101301.16;;;18.95;51.24
72558;BME280;60583;50.094;8.748;2023-05-27T08:29:32;101296.16;;;18.81;50.72
72558;BME280;60583;50.094;8.748;2023-05-27T08:31:58;101300.59;;;19.05;51.38
72558;BME280;60583;50.094;8.748;2023-05-27T08:34:24;101303.00;;;19.25;49.86
72558;BME280;60583;50.094;8.748;2023-05-27T08:36:51;101304.78;;;19.54;48.18
72558;BME280;60583;50.094;8.748;2023-05-27T08:39:16;101300.44;;;19.88;48.94
72558;BME280;60583;50.094;8.748;2023-05-27T08:41:41;101289.13;;;20.02;48.52
72558;BME280;60583;50.094;8.748;2023-05-27T08:44:07;101299.00;;;20.08;49.14
72558;BME280;60583;50.094;8.748;2023-05-27T08:46:33;101290.41;;;20.23;47.01
72558;BME280;60583;50.094;8.748;2023-05-27T08:49:01;101281.63;;;20.44;46.69
72558;BME280;60583;50.094;8.748;2023-05-27T08:51:27;101281.69;;;20.09;45.20
72558;BME280;60583;50.094;8.748;2023-05-27T08:53:52;101273.88;;;20.36;47.18
72558;BME280;60583;50.094;8.748;2023-05-27T08:56:21;101272.47;;;20.62;46.39
72558;BME280;60583;50.094;8.748;2023-05-27T08:58:47;101261.72;;;19.87;43.86
72558;BME280;60583;50.094;8.748;2023-05-27T09:01:17;101274.84;;;20.07;44.29
72558;BME280;60583;50.094;8.748;2023-05-27T09:03:43;101269.97;;;20.32;43.79
72558;BME280;60583;50.094;8.748;2023-05-27T09:06:09;101268.75;;;20.11;43.55
72558;BME280;60583;50.094;8.748;2023-05-27T09:08:34;101262.72;;;20.09;42.76
72558;BME280;60583;50.094;8.748;2023-05-27T09:11:00;101262.84;;;20.54;43.17
72558;BME280;60583;50.094;8.748;2023-05-27T09:13:30;101264.13;;;20.80;42.75
72558;BME280;60583;50.094;8.748;2023-05-27T09:15:59;101246.59;;;21.16;43.06
72558;BME280;60583;50.094;8.748;2023-05-27T09:18:30;101262.03;;;21.48;42.41
72558;BME280;60583;50.094;8.748;2023-05-27T09:20:56;101244.78;;;21.21;42.66
72558;BME280;60583;50.094;8.748;2023-05-27T09:23:21;101255.03;;;21.52;40.85
72558;BME280;60583;50.094;8.748;2023-05-27T09:25:47;101251.44;;;21.30;39.86
72558;BME280;60583;50.094;8.748;2023-05-27T09:28:20;101229.16;;;21.28;41.13
72558;BME280;60583;50.094;8.748;2023-05-27T09:30:45;101246.84;;;21.31;41.45
72558;BME280;60583;50.094;8.748;2023-05-27T09:33:12;101241.34;;;21.09;42.05
72558;BME280;60583;50.094;8.748;2023-05-27T09:35:38;101231.41;;;21.53;43.30
72558;BME280;60583;50.094;8.748;2023-05-27T09:38:06;101248.06;;;21.95;40.42
72558;BME280;60583;50.094;8.748;2023-05-27T09:40:32;101245.00;;;21.91;38.91
72558;BME280;60583;50.094;8.748;2023-05-27T09:43:03;101237.75;;;21.97;40.32
72558;BME280;60583;50.094;8.748;2023-05-27T09:45:28;101214.34;;;21.36;38.54
72558;BME280;60583;50.094;8.748;2023-05-27T09:47:58;101229.78;;;21.52;39.31
72558;BME280;60583;50.094;8.748;2023-05-27T09:50:26;101237.00;;;22.01;39.59
72558;BME280;60583;50.094;8.748;2023-05-27T09:52:54;101220.13;;;21.99;39.42
72558;BME280;60583;50.094;8.748;2023-05-27T09:55:20;101236.56;;;22.58;38.06
72558;BME280;60583;50.094;8.748;2023-05-27T09:57:45;101220.25;;;22.36;38.62
72558;BME280;60583;50.094;8.748;2023-05-27T10:00:12;101226.31;;;22.43;39.07
72558;BME280;60583;50.094;8.748;2023-05-27T10:02:40;101227.97;;;22.98;39.84
72558;BME280;60583;50.094;8.748;2023-05-27T10:05:08;101210.41;;;22.83;38.63
72558;BME280;60583;50.094;8.748;2023-05-27T10:07:38;101212.44;;;22.93;38.37
72558;BME280;60583;50.094;8.748;2023-05-27T10:10:11;101214.00;;;22.89;37.14
72558;BME280;60583;50.094;8.748;2023-05-27T10:12:39;101214.31;;;22.93;37.63
72558;BME280;60583;50.094;8.748;2023-05-27T10:15:05;101201.53;;;23.30;37.29
72558;BME280;60583;50.094;8.748;2023-05-27T10:18:06;101167.22;;;22.60;38.15
72558;BME280;60583;50.094;8.748;2023-05-27T10:20:36;101205.91;;;22.41;37.29
72558;BME280;60583;50.094;8.748;2023-05-27T10:25:36;101190.22;;;23.43;37.74
72558;BME280;60583;50.094;8.748;2023-05-27T10:28:02;101185.66;;;24.26;36.29
72558;BME280;60583;50.094;8.748;2023-05-27T10:30:27;101179.88;;;24.12;36.30
72558;BME280;60583;50.094;8.748;2023-05-27T10:32:53;101169.88;;;24.48;36.72
72558;BME280;60583;50.094;8.748;2023-05-27T10:35:21;101178.66;;;24.95;33.96
72558;BME280;60583;50.094;8.748;2023-05-27T10:37:50;101176.19;;;24.94;34.68
72558;BME280;60583;50.094;8.748;2023-05-27T10:40:24;101188.94;;;25.44;34.68
72558;BME280;60583;50.094;8.748;2023-05-27T10:43:00;101178.84;;;25.39;33.71
72558;BME280;60583;50.094;8.748;2023-05-27T10:45:33;101142.78;;;24.06;35.48
72558;BME280;60583;50.094;8.748;2023-05-27T10:48:00;101165.19;;;25.49;34.49
72558;BME280;60583;50.094;8.748;2023-05-27T10:50:34;101153.50;;;25.18;34.60
72558;BME280;60583;50.094;8.748;2023-05-27T10:53:00;101159.34;;;25.76;34.38
72558;BME280;60583;50.094;8.748;2023-05-27T10:55:26;101162.75;;;25.43;34.28
72558;BME280;60583;50.094;8.748;2023-05-27T10:57:52;101169.84;;;25.49;33.76
72558;BME280;60583;50.094;8.748;2023-05-27T11:00:18;101148.03;;;25.23;33.47
72558;BME280;60583;50.094;8.748;2023-05-27T11:02:46;101148.00;;;25.28;33.76
72558;BME280;60583;50.094;8.748;2023-05-27T11:05:14;101139.81;;;26.03;34.08
72558;BME280;60583;50.094;8.748;2023-05-27T11:07:40;101123.00;;;26.24;34.03
72558;BME280;60583;50.094;8.748;2023-05-27T11:10:07;101132.88;;;26.25;32.16
72558;BME280;60583;50.094;8.748;2023-05-27T11:12:32;101134.09;;;25.45;33.41
72558;BME280;60583;50.094;8.748;2023-05-27T11:14:58;101124.22;;;25.98;32.52
72558;BME280;60583;50.094;8.748;2023-05-27T11:17:23;101134.91;;;25.25;31.32
72558;BME280;60583;50.094;8.748;2023-05-27T11:19:49;101114.78;;;25.80;30.24
72558;BME280;60583;50.094;8.748;2023-05-27T11:22:15;101133.53;;;25.23;31.42
72558;BME280;60583;50.094;8.748;2023-05-27T11:24:42;101122.47;;;25.68;30.41
72558;BME280;60583;50.094;8.748;2023-05-27T11:27:14;101125.97;;;26.33;31.40
72558;BME280;60583;50.094;8.748;2023-05-27T11:29:48;101104.28;;;26.41;31.39
72558;BME280;60583;50.094;8.748;2023-05-27T11:32:16;101113.44;;;26.89;30.71
72558;BME280;60583;50.094;8.748;2023-05-27T11:34:43;101107.69;;;27.43;30.33
72558;BME280;60583;50.094;8.748;2023-05-27T11:37:09;101100.00;;;26.93;30.65
72558;BME280;60583;50.094;8.748;2023-05-27T11:39:35;101094.91;;;27.34;31.37
72558;BME280;60583;50.094;8.748;2023-05-27T11:42:05;101087.19;;;27.59;30.94
72558;BME280;60583;50.094;8.748;2023-05-27T11:44:31;101091.41;;;26.76;29.96
72558;BME280;60583;50.094;8.748;2023-05-27T11:47:00;101081.38;;;27.42;31.57
72558;BME280;60583;50.094;8.748;2023-05-27T11:49:27;101064.44;;;26.30;30.00
72558;BME280;60583;50.094;8.748;2023-05-27T11:51:55;101081.13;;;26.63;29.50
72558;BME280;60583;50.094;8.748;2023-05-27T11:54:28;101074.53;;;26.63;28.25
72558;BME280;60583;50.094;8.748;2023-05-27T11:56:55;101080.44;;;26.81;27.99
72558;BME280;60583;50.094;8.748;2023-05-27T11:59:22;101076.81;;;26.23;28.97
72558;BME280;60583;50.094;8.748;2023-05-27T12:01:47;101070.81;;;25.77;29.18
72558;BME280;60583;50.094;8.748;2023-05-27T12:04:13;101072.59;;;26.35;28.12
72558;BME280;60583;50.094;8.748;2023-05-27T12:06:39;101065.56;;;26.24;27.75
72558;BME280;60583;50.094;8.748;2023-05-27T12:09:07;101046.81;;;26.99;29.73
72558;BME280;60583;50.094;8.748;2023-05-27T12:11:34;101063.19;;;27.04;27.37
72558;BME280;60583;50.094;8.748;2023-05-27T12:14:00;101053.84;;;27.52;27.85
72558;BME280;60583;50.094;8.748;2023-05-27T12:16:26;101059.13;;;27.49;28.19
72558;BME280;60583;50.094;8.748;2023-05-27T12:18:51;101055.16;;;27.36;27.82
72558;BME280;60583;50.094;8.748;2023-05-27T12:21:17;101037.63;;;27.32;28.78
72558;BME280;60583;50.094;8.748;2023-05-27T12:23:43;101039.63;;;27.88;27.79
72558;BME280;60583;50.094;8.748;2023-05-27T12:26:08;101035.09;;;28.15;26.80
72558;BME280;60583;50.094;8.748;2023-05-27T12:28:35;101022.22;;;27.41;26.74
72558;BME280;60583;50.094;8.748;2023-05-27T12:31:00;101025.81;;;26.37;27.93
72558;BME280;60583;50.094;8.748;2023-05-27T12:33:26;101018.25;;;24.57;29.11
72558;BME280;60583;50.094;8.748;2023-05-27T12:35:51;101018.75;;;24.69;29.82
72558;BME280;60583;50.094;8.748;2023-05-27T12:38:17;101011.44;;;24.24;30.33
72558;BME280;60583;50.094;8.748;2023-05-27T12:40:42;101017.69;;;24.50;31.32
72558;BME280;60583;50.094;8.748;2023-05-27T12:43:08;101015.47;;;24.77;32.91
72558;BME280;60583;50.094;8.748;2023-05-27T12:45:33;101019.56;;;24.74;32.68
72558;BME280;60583;50.094;8.748;2023-05-27T12:47:58;100989.81;;;24.83;32.64
72558;BME280;60583;50.094;8.748;2023-05-27T12:50:24;101004.28;;;24.79;32.41
72558;BME280;60583;50.094;8.748;2023-05-27T12:52:50;100992.91;;;24.36;30.85